ADDS TAF Board (Experimental) INFO

IDs: Format: Expanded Condensed

Updated at: 0804 UTC 21 Sep 2014

KLGA - New York/La Guardia, NY, US

Issued at 0730 UTC 21 Sep 2014
Time0751Z21/09Z21/10Z21/11Z21/12Z21/13Z21/14Z21/15Z21/16Z21/17Z21/18Z21/19Z21/20Z21/21Z
TypeOBSPRVL
  [TEMP]  
PRVL
  [TEMP]  
PRVL
  [TEMP]  
PRVL
  [TEMP]  
PRVLPRVLPRVLPRVLPRVLPRVLPRVLPRVLPRVL
VIS76
  [5]  
6
  [5]  
6
  [5]  
6
  [5]  
6>6>6>6>6>6>6>6>6
CIG815
  [7]  
15
  [7]  
15
  [7]  
15
  [7]  
1525253535--------
CoverOVCBKN
  [BKN]  
BKN
  [BKN]  
BKN
  [BKN]  
BKN
  [BKN]  
BKNBKNBKNBKNBKNSCTSCTSCTSCT
FltCatIFRMVFR
  [IFR]  
MVFR
  [IFR]  
MVFR
  [IFR]  
MVFR
  [IFR]  
MVFRMVFRMVFRVFRVFRVFRVFRVFRVFR
WX--BR
  [BR]  
BR
  [BR]  
BR
  [BR]  
BR
  [BR]  
BR----------------
WDirVRBVRB
[VRB]
VRB
[VRB]
VRB
[VRB]
VRB
[VRB]
VRBVRBVRB140140150150150150
WSpd05
  [5]  
5
  [5]  
5
  [5]  
5
  [5]  
555668888
WGst----
  [--]  
--
  [--]  
--
  [--]  
--
  [--]  
------------------
R04/22
XWndVRB3333VRBVRBVRB-6-6-7-7-7-7
XGst--0000------------------
HWndVRB4444VRBVRBVRB-2-2-4-4-4-4
HGst--0000------------------
R13/31
XWndVRB4444VRBVRBVRB-2-2-4-4-4-4
XGst--0000------------------
HWndVRB-3-3-3-3VRBVRBVRB667777
HGst--0000------------------
Raw TAF
KLGA 210730Z 2108/2206 VRB05KT 6SM BR BKN015
  TEMPO 2108/2109 3SM SHRA BR BKN007
  FM210900 VRB05KT 6SM BR SCT007 BKN015
  TEMPO 2109/2113 5SM BR BKN007
  FM211400 VRB05KT P6SM SCT015 BKN025
  FM211600 14006KT P6SM SCT025 BKN035
  FM211800 15008KT P6SM FEW025 SCT250
  FM220100 25008KT P6SM SCT040 BKN250
  FM220500 28010KT P6SM SCT040


Raw METAR
KLGA 210751Z 00000KT 7SM OVC008 19/18 A2995 RMK AO2 RAE24 CIG 005V011 SLP141 P0007 T01940183 $
KLGA 210749Z 00000KT 7SM OVC008 19/18 A2995 RMK AO2 RAE24 CIG 005V011 P0007 $
KLGA 210736Z 00000KT 9SM OVC006 19/18 A2996 RMK AO2 RAE24 CIG 005V009 P0007 $

TAF Board Legend

Hazard VFR MVFR IFR LIFR
Visibility (sm) >5 3≤X≤5 1≤X<3 <1
Ceiling (100 ft) >30 10≤X≤30 5≤X<10 <5
Wind Speed (kt) <10 10≤X<20 20≤X<30 ≥30
Wind Gust (kt) <15 15≤X<25 25≤X<35 ≥35
Weather No Wx Reported VCTS,-TS,-FZRA TS,FZRA +TS,+FZRA


Page loaded:  08:04 UTC  |   01:04 AM Pacific  |   02:04 AM Mountain  |   03:04 AM Central  |   04:04 AM Eastern

 

ADVISORIES

FORECASTS

FORECASTS

OBSERVATIONS

USER TOOLS

ABOUT US